Friday, October 19, 2018, 6:41 PM EDT
Back to Local

KLNS, Lancaster Airport

Location: Lititz, PA, United States Lat: 40.117
Local Time: 6:41 PM EDT (22:41 GMT) Lon: -76.3
Time Zone: US/Eastern Elev: 403 ft

Show me the last for .
Show Decoded

2018-10-19 17:53 METAR KLNS 192153Z 17008KT 10SM CLR 14/07 A3005 RMK AO2 SLP177 T01440072 =
2018-10-19 16:53 METAR KLNS 192053Z 19009KT 10SM CLR 16/06 A3007 RMK AO2 SLP182 T01610061 56038 =
2018-10-19 15:53 METAR KLNS 191953Z 20009KT 10SM CLR 16/03 A3009 RMK AO2 SLP191 T01610033 =
2018-10-19 14:53 METAR KLNS 191853Z 21008KT 10SM CLR 17/03 A3013 RMK AO2 SLP202 T01670028 =
2018-10-19 13:53 METAR KLNS 191753Z 26004KT 10SM CLR 16/03 A3018 RMK AO2 SLP220 T01560033 10156
                 20011 58043 =
2018-10-19 12:53 METAR KLNS 191653Z 24008KT 10SM CLR 14/03 A3023 RMK AO2 SLP237 T01440028 =
2018-10-19 11:53 METAR KLNS 191553Z 25012KT 10SM CLR 14/02 A3028 RMK AO2 SLP253 T01390017 =
2018-10-19 10:53 METAR KLNS 191453Z 26006KT 10SM CLR 12/04 A3031 RMK AO2 SLP264 T01220039 58011 =
2018-10-19 09:53 METAR KLNS 191353Z 23004KT 10SM CLR 09/04 A3033 RMK AO2 SLP272 T00890039 =
2018-10-19 08:53 METAR KLNS 191253Z 00000KT 10SM CLR 05/03 A3034 RMK AO2 SLP276 T00500033 =
2018-10-19 07:53 METAR KLNS 191153Z 00000KT 7SM CLR 01/01 A3034 RMK AO2 SLP277 T00110011 10039
                 20011 58000 =
2018-10-19 06:53 METAR KLNS 191053Z 30003KT 10SM CLR 02/01 A3034 RMK AO2 SLP278 T00170006 =
2018-10-19 05:53 METAR KLNS 190953Z COR 00000KT 10SM CLR 02/01 A3034 RMK AO2 SLP278 T00220006 =
2018-10-19 04:53 METAR KLNS 190853Z AUTO 24003KT 10SM CLR 03/01 A3034 RMK AO2 SLP277 T00280011
                 58004 =
2018-10-19 03:53 METAR KLNS 190753Z AUTO 00000KT 10SM CLR 03/01 A3034 RMK AO2 SLP277 T00280011 =
2018-10-19 02:53 METAR KLNS 190653Z AUTO 00000KT 10SM CLR 03/01 A3035 RMK AO2 SLP280 T00330011 =
2018-10-19 01:53 METAR KLNS 190553Z AUTO 28004KT 10SM CLR 03/01 A3035 RMK AO2 SLP280 T00280011
                 10083 20028 56008 =
2018-10-19 00:53 METAR KLNS 190453Z AUTO 28004KT 10SM CLR 03/01 A3036 RMK AO2 SLP282 T00330011
                 401170033 =
2018-10-18 23:53 METAR KLNS 190353Z AUTO 00000KT 10SM CLR 03/01 A3037 RMK AO2 SLP285 T00330011 =
2018-10-18 22:53 METAR KLNS 190253Z 00000KT 10SM CLR 07/01 A3038 RMK AO2 SLP288 T00670006 53002 =
2018-10-18 21:53 METAR KLNS 190153Z 00000KT 10SM CLR 06/01 A3037 RMK AO2 SLP286 T00610011 =
2018-10-18 20:53 METAR KLNS 190053Z 27003KT 10SM CLR 07/01 A3036 RMK AO2 SLP284 T00670006 =
2018-10-18 19:53 METAR KLNS 182353Z 21003KT 10SM CLR 08/00 A3037 RMK AO2 SLP286 T00780000 10117
                 20078 53004 =
2018-10-18 18:53 METAR KLNS 182253Z 30006KT 10SM CLR 08/00 A3037 RMK AO2 SLP285 T00780000 =

Support USWX by starting your Amazon purchase here.